Allerton, New York
Current Conditions -  °F | °C
As of 4:51 AM on Friday 31 Oct 2014 (Local Time) from KLGA Reporting Station
Scattered Clouds Scattered Clouds  
Wind Chill: 41°   Ceiling: Unl
Heat Index: 45°   Visibility: 10mi
Dew Point: 34°   Wind: 7mph
Humidity: 65%   Direction: 10°N
Pressure: 30"   Gusts: NA
Location:  40.8778°N, 73.8721°W
Report Text: KLGA 310851Z 01006KT 10SM SCT050 07/01 A3000 RMK AO2 SLP158 T00720011 58006
Loading
Personal Weather Stations






























Interactive Weather Map
Tropical Storm Tracking
New forecast layout! Learn more

10-Day Weather Forecast

Advertisements
Track Severe Weather on mobile